createdAt,value
2023-05-07T00:00:08.148Z,21.67
2023-05-07T00:02:36.288Z,22.13
2023-05-07T00:05:04.531Z,21.70
2023-05-07T00:07:32.192Z,22.30
2023-05-07T00:09:59.625Z,22.15
2023-05-07T00:12:27.007Z,22.92
2023-05-07T00:14:54.538Z,23.85
2023-05-07T00:17:21.995Z,23.33
2023-05-07T00:19:49.421Z,24.00
2023-05-07T00:22:16.807Z,23.05
2023-05-07T00:24:44.353Z,23.10
2023-05-07T00:27:11.743Z,23.42
2023-05-07T00:29:39.221Z,24.00
2023-05-07T00:32:07.020Z,23.25
2023-05-07T00:34:34.442Z,23.42
2023-05-07T00:37:04.246Z,23.58
2023-05-07T00:39:32.812Z,23.88
2023-05-07T00:42:01.679Z,23.77
2023-05-07T00:44:29.529Z,23.35
2023-05-07T00:47:03.454Z,22.77
2023-05-07T00:49:37.559Z,21.58
2023-05-07T00:52:05.148Z,22.73
2023-05-07T00:54:32.863Z,21.75
2023-05-07T00:57:00.470Z,21.10
2023-05-07T00:59:28.120Z,22.33
2023-05-07T01:01:55.708Z,21.20
2023-05-07T01:04:23.218Z,20.75
2023-05-07T01:06:51.596Z,19.50
2023-05-07T01:09:21.286Z,18.75
2023-05-07T01:11:49.593Z,19.27
2023-05-07T01:14:17.780Z,19.50
2023-05-07T01:16:45.461Z,19.15
2023-05-07T01:19:15.463Z,18.45
2023-05-07T01:21:45.964Z,19.48
2023-05-07T01:24:14.258Z,18.83
2023-05-07T01:26:41.965Z,19.25
2023-05-07T01:29:09.620Z,19.00
2023-05-07T01:31:37.784Z,19.75
2023-05-07T01:34:05.604Z,18.30
2023-05-07T01:36:34.296Z,17.92
2023-05-07T01:39:02.743Z,18.90
2023-05-07T01:41:30.091Z,17.85
2023-05-07T01:43:59.082Z,18.98
2023-05-07T01:46:28.877Z,18.42
2023-05-07T01:48:56.741Z,18.70
2023-05-07T01:51:24.530Z,18.20
2023-05-07T01:53:54.458Z,19.98
2023-05-07T01:56:22.267Z,19.17
2023-05-07T01:58:52.778Z,19.77
2023-05-07T02:01:20.483Z,20.45
2023-05-07T02:03:48.610Z,22.05
2023-05-07T02:06:23.106Z,23.35
2023-05-07T02:08:52.817Z,22.75
2023-05-07T02:11:21.013Z,22.75
2023-05-07T02:13:48.502Z,23.35
2023-05-07T02:16:15.928Z,23.75
2023-05-07T02:18:43.473Z,23.15
2023-05-07T02:21:10.921Z,21.73
2023-05-07T02:23:38.379Z,22.65
2023-05-07T02:26:06.576Z,20.92
2023-05-07T02:28:36.449Z,21.73
2023-05-07T02:31:06.099Z,19.90
2023-05-07T02:33:36.164Z,21.33
2023-05-07T02:36:09.479Z,19.58
2023-05-07T02:38:40.644Z,19.20
2023-05-07T02:41:08.416Z,18.52
2023-05-07T02:43:35.835Z,18.77
2023-05-07T02:46:03.852Z,17.98
2023-05-07T02:48:31.598Z,18.10
2023-05-07T02:50:59.477Z,17.55
2023-05-07T02:53:27.433Z,19.20
2023-05-07T02:56:04.437Z,17.83
2023-05-07T02:58:31.846Z,17.73
2023-05-07T03:01:01.232Z,17.63
2023-05-07T03:03:33.998Z,16.77
2023-05-07T03:06:01.750Z,15.43
2023-05-07T03:08:29.393Z,15.50
2023-05-07T03:10:56.927Z,15.50
2023-05-07T03:13:24.555Z,15.13
2023-05-07T03:15:52.963Z,14.82
2023-05-07T03:18:20.605Z,14.93
2023-05-07T03:20:48.248Z,14.38
2023-05-07T03:23:16.923Z,14.07
2023-05-07T03:25:44.500Z,13.57
2023-05-07T03:28:11.896Z,12.80
2023-05-07T03:30:45.943Z,13.38
2023-05-07T03:33:13.285Z,12.07
2023-05-07T03:35:40.817Z,11.75
2023-05-07T03:38:08.245Z,11.80
2023-05-07T03:40:37.743Z,12.75
2023-05-07T03:43:06.016Z,11.55
2023-05-07T03:45:36.364Z,11.80
2023-05-07T03:48:15.031Z,9.98
2023-05-07T03:50:42.594Z,8.57
2023-05-07T03:53:10.027Z,7.45
2023-05-07T03:55:40.261Z,6.40
2023-05-07T03:58:07.779Z,6.28
2023-05-07T04:00:39.230Z,5.38
2023-05-07T04:03:16.428Z,5.75
2023-05-07T04:05:44.033Z,5.45
2023-05-07T04:08:11.722Z,5.43
2023-05-07T04:10:42.467Z,5.50
2023-05-07T04:13:11.979Z,5.88
2023-05-07T04:15:39.453Z,6.05
2023-05-07T04:18:10.890Z,5.75
2023-05-07T04:20:39.515Z,6.03
2023-05-07T04:23:11.496Z,5.60
2023-05-07T04:25:39.301Z,5.93
2023-05-07T04:28:27.074Z,5.80
2023-05-07T04:30:54.754Z,5.70
2023-05-07T04:33:22.922Z,4.85
2023-05-07T04:35:51.536Z,4.80
2023-05-07T04:38:19.718Z,4.72
2023-05-07T04:40:49.664Z,4.75
2023-05-07T04:43:21.750Z,4.85
2023-05-07T04:45:52.255Z,4.57
2023-05-07T04:48:21.558Z,4.25
2023-05-07T04:50:51.277Z,4.50
2023-05-07T04:53:19.831Z,3.70
2023-05-07T04:55:47.588Z,4.70
2023-05-07T04:58:16.726Z,4.07
2023-05-07T05:00:50.263Z,4.60
2023-05-07T05:03:17.769Z,4.70
2023-05-07T05:05:45.663Z,4.47
2023-05-07T05:08:13.269Z,4.68
2023-05-07T05:10:44.486Z,4.53
2023-05-07T05:13:14.041Z,3.97
2023-05-07T05:15:42.883Z,4.38
2023-05-07T05:18:10.680Z,4.18
2023-05-07T05:20:40.146Z,3.97
2023-05-07T05:23:09.752Z,4.03
2023-05-07T05:25:40.512Z,4.50
2023-05-07T05:28:10.755Z,4.55
2023-05-07T05:30:38.493Z,4.35
2023-05-07T05:33:05.982Z,4.22
2023-05-07T05:35:33.738Z,4.30
2023-05-07T05:38:06.565Z,4.05
2023-05-07T05:40:35.058Z,4.20
2023-05-07T05:43:03.213Z,4.10
2023-05-07T05:45:31.300Z,4.20
2023-05-07T05:47:58.871Z,4.10
2023-05-07T05:50:26.475Z,3.92
2023-05-07T05:52:56.299Z,3.90
2023-05-07T05:55:24.533Z,4.28
2023-05-07T05:57:52.173Z,4.22
2023-05-07T06:00:23.367Z,4.32
2023-05-07T06:02:58.579Z,3.70
2023-05-07T06:05:26.838Z,3.35
2023-05-07T06:07:56.591Z,3.53
2023-05-07T06:10:25.181Z,3.67
2023-05-07T06:12:52.640Z,3.63
2023-05-07T06:15:20.423Z,3.40
2023-05-07T06:17:50.204Z,3.88
2023-05-07T06:20:18.116Z,3.65
2023-05-07T06:22:46.368Z,3.92
2023-05-07T06:25:16.015Z,3.83
2023-05-07T06:27:44.601Z,4.13
2023-05-07T06:30:12.335Z,3.67
2023-05-07T06:32:42.245Z,3.80
2023-05-07T06:35:10.854Z,3.60
2023-05-07T06:37:40.714Z,3.78
2023-05-07T06:40:09.786Z,3.25
2023-05-07T06:42:39.762Z,4.03
2023-05-07T06:45:35.903Z,3.63
2023-05-07T06:48:03.814Z,3.10
2023-05-07T06:50:36.107Z,3.58
2023-05-07T06:53:04.409Z,3.40
2023-05-07T06:55:32.873Z,3.65
2023-05-07T06:58:02.274Z,3.70
2023-05-07T07:00:29.910Z,3.60
2023-05-07T07:02:57.796Z,3.60
2023-05-07T07:05:28.354Z,3.38
2023-05-07T07:07:56.452Z,3.30
2023-05-07T07:10:24.441Z,3.60
2023-05-07T07:12:53.933Z,3.72
2023-05-07T07:15:22.392Z,3.97
2023-05-07T07:17:51.250Z,3.53
2023-05-07T07:20:18.920Z,3.95
2023-05-07T07:22:47.656Z,4.05
2023-05-07T07:25:17.049Z,3.75
2023-05-07T07:27:45.093Z,3.50
2023-05-07T07:30:14.197Z,3.50
2023-05-07T07:32:44.572Z,3.45
2023-05-07T07:35:12.067Z,3.72
2023-05-07T07:37:40.737Z,3.53
2023-05-07T07:40:08.740Z,3.65
2023-05-07T07:42:37.467Z,3.72
2023-05-07T07:45:05.611Z,4.20
2023-05-07T07:47:36.344Z,4.28
2023-05-07T07:50:03.843Z,4.88
2023-05-07T07:52:31.489Z,5.22
2023-05-07T07:54:58.966Z,5.10
2023-05-07T07:57:26.519Z,4.60
2023-05-07T07:59:54.605Z,4.30
2023-05-07T08:02:22.163Z,4.30
2023-05-07T08:04:51.030Z,4.20
2023-05-07T08:07:23.816Z,3.80
2023-05-07T08:09:51.523Z,3.60
2023-05-07T08:12:22.723Z,3.25
2023-05-07T08:14:50.185Z,3.78
2023-05-07T08:17:18.220Z,3.80
2023-05-07T08:19:46.831Z,3.67
2023-05-07T08:22:16.048Z,4.38
2023-05-07T08:24:43.587Z,4.10
2023-05-07T08:27:12.447Z,4.90
2023-05-07T08:29:42.324Z,4.72
2023-05-07T08:32:09.822Z,4.80
2023-05-07T08:34:37.446Z,4.13
2023-05-07T08:37:06.772Z,5.28
2023-05-07T08:39:34.928Z,5.03
2023-05-07T08:42:06.772Z,4.68
2023-05-07T08:44:36.404Z,4.45
2023-05-07T08:47:04.170Z,4.85
2023-05-07T08:49:32.934Z,5.72
2023-05-07T08:52:01.111Z,5.90
2023-05-07T08:54:30.389Z,6.45
2023-05-07T08:56:58.179Z,6.55
2023-05-07T08:59:26.079Z,7.07
2023-05-07T09:01:53.932Z,6.60
2023-05-07T09:04:21.654Z,7.10
2023-05-07T09:06:49.492Z,7.47
2023-05-07T09:09:19.947Z,7.25
2023-05-07T09:11:48.015Z,7.05
2023-05-07T09:14:19.198Z,7.60
2023-05-07T09:16:48.228Z,7.68
2023-05-07T09:19:15.915Z,8.80
2023-05-07T09:21:46.789Z,8.95
2023-05-07T09:24:17.081Z,8.60
2023-05-07T09:26:45.534Z,8.60
2023-05-07T09:29:14.911Z,8.98
2023-05-07T09:31:42.461Z,7.90
2023-05-07T09:34:13.123Z,7.60
2023-05-07T09:36:43.578Z,7.40
2023-05-07T09:39:12.546Z,6.95
2023-05-07T09:41:46.984Z,7.05
2023-05-07T09:44:20.857Z,6.80
2023-05-07T09:46:55.716Z,6.97
2023-05-07T09:49:31.690Z,6.70
2023-05-07T09:52:07.155Z,6.18
2023-05-07T09:54:38.912Z,6.47
2023-05-07T09:57:08.108Z,6.13
2023-05-07T09:59:36.551Z,5.50
2023-05-07T10:02:07.369Z,6.28
2023-05-07T10:04:41.948Z,6.28
2023-05-07T10:07:10.865Z,5.43
2023-05-07T10:09:40.445Z,5.80
2023-05-07T10:12:13.324Z,5.88
2023-05-07T10:14:41.153Z,5.85
2023-05-07T10:17:08.878Z,5.85
2023-05-07T10:19:37.914Z,5.47
2023-05-07T10:22:07.311Z,5.35
2023-05-07T10:24:40.697Z,4.82
2023-05-07T10:27:16.250Z,5.07
2023-05-07T10:30:05.537Z,5.20
2023-05-07T10:32:40.855Z,5.82
2023-05-07T10:35:14.353Z,6.13
2023-05-07T10:37:42.434Z,5.60
2023-05-07T10:40:11.275Z,5.75
2023-05-07T10:42:38.744Z,5.65
2023-05-07T10:45:17.730Z,5.70
2023-05-07T10:48:20.853Z,5.40
2023-05-07T10:51:17.493Z,6.25
2023-05-07T10:53:45.158Z,6.82
2023-05-07T10:56:21.483Z,6.55
2023-05-07T10:58:58.251Z,6.28
2023-05-07T11:01:49.544Z,6.32
2023-05-07T11:04:19.622Z,5.40
2023-05-07T11:07:29.427Z,6.18
2023-05-07T11:10:06.029Z,5.53
2023-05-07T11:12:47.481Z,6.10
2023-05-07T11:15:36.892Z,5.68
2023-05-07T11:18:08.150Z,6.32
2023-05-07T11:20:59.221Z,6.75
2023-05-07T11:23:52.893Z,6.80
2023-05-07T11:26:27.673Z,6.53
2023-05-07T11:28:55.713Z,6.68
2023-05-07T11:31:27.087Z,7.18
2023-05-07T11:33:56.026Z,6.95
2023-05-07T11:36:25.020Z,6.25
2023-05-07T11:38:54.898Z,5.75
2023-05-07T11:41:23.066Z,7.00
2023-05-07T11:44:00.411Z,6.10
2023-05-07T11:46:28.847Z,5.20
2023-05-07T11:48:57.227Z,4.95
2023-05-07T11:51:27.011Z,5.20
2023-05-07T11:53:54.956Z,4.97
2023-05-07T11:56:22.450Z,5.35
2023-05-07T11:58:50.815Z,4.53
2023-05-07T12:01:18.240Z,4.63
2023-05-07T12:03:47.449Z,4.20
2023-05-07T12:06:16.518Z,4.05
2023-05-07T12:08:47.079Z,3.92
2023-05-07T12:11:18.644Z,3.63
2023-05-07T12:13:46.249Z,3.63
2023-05-07T12:16:14.440Z,3.40
2023-05-07T12:18:42.401Z,3.85
2023-05-07T12:21:10.036Z,4.03
2023-05-07T12:23:38.225Z,4.13
2023-05-07T12:26:07.691Z,4.15
2023-05-07T12:28:40.339Z,4.05
2023-05-07T12:31:08.617Z,4.50
2023-05-07T12:33:37.050Z,4.03
2023-05-07T12:36:06.082Z,4.13
2023-05-07T12:38:37.105Z,4.85
2023-05-07T12:41:04.766Z,4.03
2023-05-07T12:43:32.220Z,4.32
2023-05-07T12:46:02.159Z,4.40
2023-05-07T12:48:29.898Z,4.47
2023-05-07T12:51:01.289Z,4.13
2023-05-07T12:53:29.656Z,4.05
2023-05-07T12:55:58.004Z,4.05
2023-05-07T12:58:27.837Z,4.18
2023-05-07T13:01:00.432Z,4.07
2023-05-07T13:03:31.437Z,3.95
2023-05-07T13:06:02.979Z,3.88
2023-05-07T13:08:30.549Z,4.32
2023-05-07T13:10:59.074Z,4.63
2023-05-07T13:13:27.259Z,4.35
2023-05-07T13:15:56.095Z,4.70
2023-05-07T13:18:23.790Z,4.32
2023-05-07T13:20:51.394Z,4.25
2023-05-07T13:23:19.193Z,4.85
2023-05-07T13:25:47.320Z,4.70
2023-05-07T13:28:16.869Z,5.00
2023-05-07T13:30:46.852Z,4.78
2023-05-07T13:33:14.559Z,4.32
2023-05-07T13:35:41.954Z,4.85
2023-05-07T13:38:09.395Z,4.57
2023-05-07T13:40:36.976Z,4.20
2023-05-07T13:43:04.539Z,4.20
2023-05-07T13:45:32.207Z,4.10
2023-05-07T13:47:59.993Z,4.60
2023-05-07T13:50:31.061Z,4.38
2023-05-07T13:52:58.858Z,4.43
2023-05-07T13:55:26.546Z,4.30
2023-05-07T13:58:01.601Z,4.88
2023-05-07T14:00:29.926Z,4.78
2023-05-07T14:02:58.970Z,4.20
2023-05-07T14:05:27.755Z,4.88
2023-05-07T14:07:55.730Z,4.78
2023-05-07T14:10:23.071Z,4.78
2023-05-07T14:12:50.660Z,5.07
2023-05-07T14:15:18.206Z,5.00
2023-05-07T14:17:46.061Z,5.50
2023-05-07T14:20:14.271Z,5.38
2023-05-07T14:22:41.931Z,5.55
2023-05-07T14:25:10.814Z,5.65
2023-05-07T14:27:38.473Z,6.00
2023-05-07T14:30:06.268Z,5.68
2023-05-07T14:32:34.394Z,5.45
2023-05-07T14:35:02.173Z,5.55
2023-05-07T14:37:29.776Z,6.22
2023-05-07T14:39:57.180Z,6.18
2023-05-07T14:42:24.821Z,5.88
2023-05-07T14:44:54.141Z,5.55
2023-05-07T14:47:21.901Z,6.03
2023-05-07T14:49:49.304Z,5.85
2023-05-07T14:52:16.986Z,6.05
2023-05-07T14:54:44.351Z,6.25
2023-05-07T14:57:17.311Z,6.15
2023-05-07T14:59:44.991Z,6.78
2023-05-07T15:02:13.415Z,7.10
2023-05-07T15:04:46.782Z,6.63
2023-05-07T15:07:17.657Z,6.72
2023-05-07T15:09:45.151Z,6.63
2023-05-07T15:12:12.858Z,6.40
2023-05-07T15:14:40.770Z,6.07
2023-05-07T15:17:08.636Z,7.15
2023-05-07T15:19:36.201Z,6.20
2023-05-07T15:22:03.898Z,6.18
2023-05-07T15:24:32.030Z,6.00
2023-05-07T15:26:59.672Z,6.43
2023-05-07T15:29:27.256Z,6.20
2023-05-07T15:31:55.491Z,6.28
2023-05-07T15:34:25.140Z,6.60
2023-05-07T15:36:52.601Z,6.63
2023-05-07T15:39:20.370Z,7.10
2023-05-07T15:41:48.261Z,7.30
2023-05-07T15:44:15.885Z,7.00
2023-05-07T15:46:43.505Z,7.57
2023-05-07T15:49:11.738Z,6.95
2023-05-07T15:51:39.179Z,7.30
2023-05-07T15:54:06.804Z,7.25
2023-05-07T15:56:34.356Z,7.55
2023-05-07T15:59:02.557Z,7.70
2023-05-07T16:01:30.110Z,7.75
2023-05-07T16:03:58.024Z,7.07
2023-05-07T16:06:25.445Z,7.15
2023-05-07T16:08:52.897Z,7.20
2023-05-07T16:11:20.386Z,6.53
2023-05-07T16:13:48.071Z,6.63
2023-05-07T16:16:15.762Z,7.47
2023-05-07T16:18:43.333Z,7.53
2023-05-07T16:21:10.878Z,7.00
2023-05-07T16:23:38.437Z,6.97
2023-05-07T16:26:06.010Z,6.90
2023-05-07T16:28:33.458Z,7.30
2023-05-07T16:31:01.057Z,7.68
2023-05-07T16:33:28.558Z,7.32
2023-05-07T16:35:56.045Z,7.32
2023-05-07T16:38:23.459Z,6.55
2023-05-07T16:40:50.876Z,7.05
2023-05-07T16:43:18.252Z,7.32
2023-05-07T16:45:46.731Z,6.85
2023-05-07T16:48:14.455Z,7.30
2023-05-07T16:50:44.544Z,7.90
2023-05-07T16:53:12.465Z,7.25
2023-05-07T16:55:40.367Z,7.38
2023-05-07T16:58:09.032Z,7.10
2023-05-07T17:00:48.926Z,8.00
2023-05-07T17:03:17.667Z,8.23
2023-05-07T17:05:45.312Z,8.40
2023-05-07T17:08:14.178Z,8.63
2023-05-07T17:10:42.129Z,8.73
2023-05-07T17:13:09.713Z,9.70
2023-05-07T17:15:37.230Z,8.73
2023-05-07T17:18:04.754Z,9.13
2023-05-07T17:20:32.317Z,8.75
2023-05-07T17:22:59.757Z,9.20
2023-05-07T17:25:27.184Z,8.93
2023-05-07T17:27:54.684Z,9.15
2023-05-07T17:30:22.107Z,9.50
2023-05-07T17:32:49.654Z,9.80
2023-05-07T17:35:17.199Z,10.00
2023-05-07T17:37:52.301Z,10.40
2023-05-07T17:40:22.797Z,10.63
2023-05-07T17:42:51.317Z,10.60
2023-05-07T17:45:19.724Z,11.47
2023-05-07T17:47:47.190Z,12.25
2023-05-07T17:50:15.108Z,12.63
2023-05-07T17:52:42.668Z,13.10
2023-05-07T17:55:10.876Z,13.50
2023-05-07T17:57:38.687Z,13.03
2023-05-07T18:00:10.566Z,12.03
2023-05-07T18:02:38.451Z,10.90
2023-05-07T18:05:06.169Z,10.93
2023-05-07T18:07:33.809Z,11.48
2023-05-07T18:10:01.290Z,11.10
2023-05-07T18:12:28.648Z,11.90
2023-05-07T18:14:56.155Z,11.80
2023-05-07T18:17:24.500Z,11.50
2023-05-07T18:19:54.708Z,11.88
2023-05-07T18:22:22.693Z,11.70
2023-05-07T18:24:51.147Z,11.60
2023-05-07T18:27:18.874Z,10.73
2023-05-07T18:29:46.389Z,11.98
2023-05-07T18:32:14.375Z,11.75
2023-05-07T18:34:41.879Z,11.70
2023-05-07T18:37:09.311Z,12.82
2023-05-07T18:39:36.951Z,11.03
2023-05-07T18:42:08.688Z,12.03
2023-05-07T18:44:38.594Z,12.07
2023-05-07T18:47:06.555Z,12.87
2023-05-07T18:49:34.799Z,13.63
2023-05-07T18:52:02.593Z,11.93
2023-05-07T18:54:30.119Z,12.07
2023-05-07T18:56:57.471Z,12.57
2023-05-07T18:59:25.170Z,10.77
2023-05-07T19:01:52.782Z,10.23
2023-05-07T19:04:20.532Z,10.90
2023-05-07T19:06:48.146Z,10.90
2023-05-07T19:09:15.637Z,11.07
2023-05-07T19:11:43.088Z,11.38
2023-05-07T19:14:11.175Z,11.03
2023-05-07T19:16:38.798Z,11.20
2023-05-07T19:19:06.855Z,11.27
2023-05-07T19:21:34.210Z,10.93
2023-05-07T19:24:01.550Z,11.63
2023-05-07T19:26:29.040Z,11.23
2023-05-07T19:29:12.448Z,10.60
2023-05-07T19:31:44.449Z,10.57
2023-05-07T19:34:14.162Z,9.50
2023-05-07T19:36:41.907Z,8.60
2023-05-07T19:39:09.354Z,8.13
2023-05-07T19:41:37.261Z,8.23
2023-05-07T19:44:04.760Z,9.63
2023-05-07T19:46:32.182Z,8.37
2023-05-07T19:48:59.791Z,8.50
2023-05-07T19:51:32.426Z,8.07
2023-05-07T19:54:00.273Z,9.00
2023-05-07T19:56:27.854Z,8.77
2023-05-07T19:58:57.269Z,8.90
2023-05-07T20:01:25.394Z,8.27
2023-05-07T20:03:52.998Z,7.70
2023-05-07T20:06:20.658Z,7.40
2023-05-07T20:08:48.386Z,8.73
2023-05-07T20:11:16.012Z,7.27
2023-05-07T20:13:43.695Z,8.87
2023-05-07T20:16:11.740Z,8.40
2023-05-07T20:18:39.318Z,7.97
2023-05-07T20:21:07.383Z,7.83
2023-05-07T20:23:34.820Z,7.63
2023-05-07T20:26:02.324Z,8.33
2023-05-07T20:28:29.707Z,8.17
2023-05-07T20:30:57.381Z,7.67
2023-05-07T20:33:25.138Z,7.70
2023-05-07T20:35:52.545Z,8.10
2023-05-07T20:38:20.039Z,7.60
2023-05-07T20:40:47.577Z,8.03
2023-05-07T20:43:15.168Z,7.40
2023-05-07T20:45:43.273Z,8.00
2023-05-07T20:48:12.588Z,7.93
2023-05-07T20:50:40.519Z,8.73
2023-05-07T20:53:08.011Z,9.77
2023-05-07T20:55:35.687Z,10.73
2023-05-07T20:58:03.472Z,10.93
2023-05-07T21:00:33.026Z,10.80
2023-05-07T21:03:04.433Z,11.50
2023-05-07T21:05:45.157Z,11.53
2023-05-07T21:08:19.547Z,10.90
2023-05-07T21:10:48.370Z,10.17
2023-05-07T21:13:15.980Z,10.70
2023-05-07T21:15:43.532Z,9.90
2023-05-07T21:18:13.470Z,9.53
2023-05-07T21:20:42.751Z,9.07
2023-05-07T21:23:10.736Z,9.10
2023-05-07T21:25:41.711Z,9.93
2023-05-07T21:28:09.638Z,9.93
2023-05-07T21:30:37.985Z,9.50
2023-05-07T21:33:08.290Z,9.20
2023-05-07T21:35:36.523Z,9.53
2023-05-07T21:38:04.174Z,9.07
2023-05-07T21:40:31.689Z,9.97
2023-05-07T21:43:02.523Z,9.20
2023-05-07T21:45:30.179Z,10.10
2023-05-07T21:47:58.756Z,9.00
2023-05-07T21:50:26.875Z,9.03
2023-05-07T21:52:54.297Z,8.27
2023-05-07T21:55:21.753Z,8.27
2023-05-07T21:58:01.164Z,9.23
2023-05-07T22:00:32.019Z,8.90
2023-05-07T22:02:59.416Z,7.97
2023-05-07T22:05:27.036Z,8.07
2023-05-07T22:07:54.501Z,8.33
2023-05-07T22:10:23.136Z,8.53
2023-05-07T22:12:51.010Z,8.23
2023-05-07T22:15:18.469Z,7.93
2023-05-07T22:17:45.878Z,8.37
2023-05-07T22:20:13.598Z,8.40
2023-05-07T22:22:52.516Z,7.90
2023-05-07T22:25:20.649Z,7.13
2023-05-07T22:27:47.990Z,6.90
2023-05-07T22:30:15.425Z,6.57
2023-05-07T22:32:43.594Z,6.50
2023-05-07T22:35:11.700Z,7.37
2023-05-07T22:37:39.392Z,6.87
2023-05-07T22:40:07.302Z,6.83
2023-05-07T22:42:34.788Z,6.67
2023-05-07T22:45:02.481Z,6.80
2023-05-07T22:47:31.433Z,5.90
2023-05-07T22:49:58.887Z,6.30
2023-05-07T22:52:26.450Z,6.23
2023-05-07T22:54:53.898Z,6.57
2023-05-07T22:57:21.286Z,6.90
2023-05-07T22:59:48.661Z,7.20
2023-05-07T23:02:16.120Z,7.07
2023-05-07T23:04:43.656Z,6.80
2023-05-07T23:07:11.080Z,6.67
2023-05-07T23:09:38.574Z,7.30
2023-05-07T23:12:06.297Z,6.97
2023-05-07T23:14:33.741Z,6.80
2023-05-07T23:17:01.145Z,6.77
2023-05-07T23:19:28.600Z,6.83
2023-05-07T23:21:56.056Z,6.77
2023-05-07T23:24:23.395Z,7.70
2023-05-07T23:26:50.846Z,7.83
2023-05-07T23:29:18.199Z,8.17
2023-05-07T23:31:45.836Z,7.90
2023-05-07T23:34:13.458Z,8.17
2023-05-07T23:36:40.863Z,8.03
2023-05-07T23:39:08.205Z,7.97
2023-05-07T23:41:35.902Z,7.97
2023-05-07T23:44:03.246Z,7.53
2023-05-07T23:46:30.761Z,7.47
2023-05-07T23:48:58.158Z,7.63
2023-05-07T23:51:25.556Z,8.20
2023-05-07T23:53:53.045Z,7.90
2023-05-07T23:56:20.552Z,8.53
2023-05-07T23:58:48.037Z,6.90
